createdAt,value
2023-05-12T00:00:41.524Z,1.73
2023-05-12T00:01:41.476Z,1.66
2023-05-12T00:02:41.503Z,1.71
2023-05-12T00:03:41.587Z,1.65
2023-05-12T00:04:41.448Z,1.71
2023-05-12T00:05:41.381Z,1.72
2023-05-12T00:06:41.356Z,1.69
2023-05-12T00:07:41.386Z,1.68
2023-05-12T00:08:41.310Z,1.71
2023-05-12T00:09:41.292Z,1.68
2023-05-12T00:10:41.274Z,1.67
2023-05-12T00:11:41.247Z,1.66
2023-05-12T00:12:41.251Z,1.68
2023-05-12T00:13:41.219Z,1.60
2023-05-12T00:14:41.195Z,1.59
2023-05-12T00:15:41.179Z,1.65
2023-05-12T00:16:41.183Z,1.62
2023-05-12T00:17:41.181Z,1.60
2023-05-12T00:18:41.315Z,1.56
2023-05-12T00:19:41.089Z,1.58
2023-05-12T00:20:41.065Z,1.63
2023-05-12T00:21:41.039Z,1.63
2023-05-12T00:22:41.007Z,1.65
2023-05-12T00:23:40.984Z,1.65
2023-05-12T00:24:40.962Z,1.68
2023-05-12T00:25:41.001Z,1.60
2023-05-12T00:26:40.911Z,1.60
2023-05-12T00:27:40.876Z,1.66
2023-05-12T00:28:40.846Z,1.60
2023-05-12T00:29:40.851Z,1.62
2023-05-12T00:30:40.809Z,1.55
2023-05-12T00:31:41.662Z,1.67
2023-05-12T00:32:40.788Z,1.66
2023-05-12T00:33:40.749Z,1.59
2023-05-12T00:34:40.729Z,1.61
2023-05-12T00:35:40.713Z,1.65
2023-05-12T00:36:40.772Z,1.61
2023-05-12T00:37:40.670Z,1.51
2023-05-12T00:38:40.641Z,1.59
2023-05-12T00:39:40.646Z,1.56
2023-05-12T00:40:40.608Z,1.56
2023-05-12T00:41:40.661Z,1.50
2023-05-12T00:42:40.557Z,1.57
2023-05-12T00:43:40.548Z,1.57
2023-05-12T00:44:40.573Z,1.61
2023-05-12T00:45:40.505Z,1.59
2023-05-12T00:46:40.470Z,1.55
2023-05-12T00:47:40.548Z,1.49
2023-05-12T00:48:40.435Z,1.57
2023-05-12T00:49:40.419Z,1.52
2023-05-12T00:50:40.399Z,1.59
2023-05-12T00:51:40.373Z,1.54
2023-05-12T00:52:40.353Z,1.54
2023-05-12T00:53:49.195Z,1.63
2023-05-12T00:54:41.320Z,1.63
2023-05-12T00:55:40.313Z,1.59
2023-05-12T00:56:40.284Z,1.58
2023-05-12T00:57:40.267Z,1.55
2023-05-12T00:58:40.245Z,1.56
2023-05-12T00:59:40.219Z,1.51
2023-05-12T01:00:40.208Z,1.57
2023-05-12T01:01:40.284Z,1.58
2023-05-12T01:02:40.227Z,1.56
2023-05-12T01:03:40.248Z,1.59
2023-05-12T01:04:40.165Z,1.60
2023-05-12T01:05:40.124Z,1.58
2023-05-12T01:06:40.087Z,1.50
2023-05-12T01:07:40.079Z,1.54
2023-05-12T01:08:40.060Z,1.57
2023-05-12T01:09:40.045Z,1.47
2023-05-12T01:10:40.036Z,1.52
2023-05-12T01:11:40.025Z,1.50
2023-05-12T01:12:39.997Z,1.56
2023-05-12T01:13:39.997Z,1.48
2023-05-12T01:14:39.973Z,1.52
2023-05-12T01:15:39.960Z,1.55
2023-05-12T01:16:40.024Z,1.56
2023-05-12T01:17:40.108Z,1.54
2023-05-12T01:18:39.928Z,1.56
2023-05-12T01:19:39.880Z,1.49
2023-05-12T01:20:39.875Z,1.54
2023-05-12T01:21:39.843Z,1.51
2023-05-12T01:22:39.823Z,1.51
2023-05-12T01:23:39.828Z,1.54
2023-05-12T01:24:39.793Z,1.48
2023-05-12T01:25:39.783Z,1.50
2023-05-12T01:26:39.761Z,1.51
2023-05-12T01:27:39.826Z,1.46
2023-05-12T01:28:39.721Z,1.50
2023-05-12T01:29:39.709Z,1.52
2023-05-12T01:30:39.686Z,1.51
2023-05-12T01:31:39.717Z,1.48
2023-05-12T01:32:39.723Z,1.44
2023-05-12T01:33:39.642Z,1.45
2023-05-12T01:34:39.661Z,1.45
2023-05-12T01:35:39.610Z,1.52
2023-05-12T01:36:39.598Z,1.51
2023-05-12T01:37:39.583Z,1.42
2023-05-12T01:38:39.599Z,1.48
2023-05-12T01:39:39.565Z,1.51
2023-05-12T01:40:39.620Z,1.47
2023-05-12T01:41:39.553Z,1.48
2023-05-12T01:42:39.544Z,1.47
2023-05-12T01:43:40.066Z,1.49
2023-05-12T01:44:39.536Z,1.48
2023-05-12T01:45:39.514Z,1.49
2023-05-12T01:46:39.534Z,1.48
2023-05-12T01:47:39.546Z,1.42
2023-05-12T01:48:39.505Z,1.38
2023-05-12T01:49:39.521Z,1.43
2023-05-12T01:50:39.503Z,1.42
2023-05-12T01:51:39.507Z,1.45
2023-05-12T01:52:39.488Z,1.45
2023-05-12T01:53:39.487Z,1.45
2023-05-12T01:54:39.480Z,1.41
2023-05-12T01:55:39.485Z,1.44
2023-05-12T01:56:39.491Z,1.42
2023-05-12T01:57:39.481Z,1.46
2023-05-12T01:58:39.511Z,1.43
2023-05-12T01:59:39.476Z,1.43
2023-05-12T02:00:39.478Z,1.47
2023-05-12T02:01:39.502Z,1.45
2023-05-12T02:02:40.895Z,1.46
2023-05-12T02:03:39.598Z,1.48
2023-05-12T02:04:39.417Z,1.41
2023-05-12T02:05:39.400Z,1.44
2023-05-12T02:06:39.382Z,1.44
2023-05-12T02:07:39.362Z,1.40
2023-05-12T02:08:39.340Z,1.40
2023-05-12T02:09:40.089Z,1.39
2023-05-12T02:10:39.300Z,1.41
2023-05-12T02:11:39.284Z,1.42
2023-05-12T02:12:39.352Z,1.40
2023-05-12T02:13:39.246Z,1.42
2023-05-12T02:14:39.228Z,1.43
2023-05-12T02:15:39.214Z,1.42
2023-05-12T02:16:39.229Z,1.42
2023-05-12T02:17:39.173Z,1.43
2023-05-12T02:18:39.284Z,1.41
2023-05-12T02:19:39.136Z,1.33
2023-05-12T02:20:39.106Z,1.40
2023-05-12T02:21:39.091Z,1.42
2023-05-12T02:22:39.086Z,1.41
2023-05-12T02:23:39.045Z,1.38
2023-05-12T02:24:39.014Z,1.40
2023-05-12T02:25:39.584Z,1.41
2023-05-12T02:26:39.049Z,1.40
2023-05-12T02:27:38.963Z,1.39
2023-05-12T02:28:39.083Z,1.40
2023-05-12T02:29:38.934Z,1.40
2023-05-12T02:30:38.904Z,1.37
2023-05-12T02:31:38.941Z,1.33
2023-05-12T02:32:38.903Z,1.33
2023-05-12T02:33:38.845Z,1.34
2023-05-12T02:34:38.832Z,1.39
2023-05-12T02:35:38.803Z,1.38
2023-05-12T02:36:38.782Z,1.38
2023-05-12T02:37:39.589Z,1.36
2023-05-12T02:38:38.742Z,1.38
2023-05-12T02:39:38.716Z,1.38
2023-05-12T02:40:38.696Z,1.32
2023-05-12T02:41:38.686Z,1.36
2023-05-12T02:42:38.729Z,1.35
2023-05-12T02:43:38.644Z,1.37
2023-05-12T02:44:38.628Z,1.32
2023-05-12T02:45:38.629Z,1.34
2023-05-12T02:46:38.605Z,1.31
2023-05-12T02:47:38.610Z,1.34
2023-05-12T02:48:38.544Z,1.36
2023-05-12T02:49:38.510Z,1.34
2023-05-12T02:50:38.504Z,1.33
2023-05-12T02:51:38.551Z,1.36
2023-05-12T02:52:38.497Z,1.34
2023-05-12T02:53:38.446Z,1.35
2023-05-12T02:54:38.430Z,1.32
2023-05-12T02:55:38.400Z,1.33
2023-05-12T02:56:39.092Z,1.35
2023-05-12T02:57:38.371Z,1.34
2023-05-12T02:58:38.379Z,1.35
2023-05-12T02:59:38.344Z,1.33
2023-05-12T03:00:38.320Z,1.34
2023-05-12T03:01:38.388Z,1.33
2023-05-12T03:02:38.391Z,1.33
2023-05-12T03:03:38.501Z,1.34
2023-05-12T03:04:38.356Z,1.32
2023-05-12T03:05:38.228Z,1.30
2023-05-12T03:06:38.216Z,1.29
2023-05-12T03:07:38.250Z,1.30
2023-05-12T03:08:38.181Z,1.33
2023-05-12T03:09:38.151Z,1.32
2023-05-12T03:10:38.127Z,1.32
2023-05-12T03:11:38.118Z,1.33
2023-05-12T03:12:38.091Z,1.30
2023-05-12T03:13:38.075Z,1.29
2023-05-12T03:14:38.054Z,1.30
2023-05-12T03:15:38.034Z,1.30
2023-05-12T03:16:38.051Z,1.32
2023-05-12T03:17:38.073Z,1.31
2023-05-12T03:18:37.988Z,1.27
2023-05-12T03:19:37.960Z,1.29
2023-05-12T03:20:37.954Z,1.32
2023-05-12T03:21:37.967Z,1.31
2023-05-12T03:22:37.987Z,1.29
2023-05-12T03:23:37.989Z,1.28
2023-05-12T03:24:38.052Z,1.26
2023-05-12T03:25:38.000Z,1.29
2023-05-12T03:26:38.007Z,1.28
2023-05-12T03:27:37.999Z,1.29
2023-05-12T03:28:38.013Z,1.26
2023-05-12T03:29:38.031Z,1.28
2023-05-12T03:30:38.034Z,1.27
2023-05-12T03:31:38.058Z,1.28
2023-05-12T03:32:38.068Z,1.29
2023-05-12T03:33:38.117Z,1.28
2023-05-12T03:34:38.086Z,1.27
2023-05-12T03:35:38.068Z,1.26
2023-05-12T03:36:38.076Z,1.27
2023-05-12T03:37:38.115Z,1.25
2023-05-12T03:38:38.105Z,1.26
2023-05-12T03:39:38.112Z,1.26
2023-05-12T03:40:38.123Z,1.23
2023-05-12T03:41:38.142Z,1.23
2023-05-12T03:42:38.147Z,1.25
2023-05-12T03:43:38.172Z,1.25
2023-05-12T03:44:38.189Z,1.23
2023-05-12T03:45:38.195Z,1.24
2023-05-12T03:46:38.341Z,1.25
2023-05-12T03:47:38.269Z,1.24
2023-05-12T03:48:38.211Z,1.27
2023-05-12T03:49:38.211Z,1.26
2023-05-12T03:50:38.616Z,1.24
2023-05-12T03:51:38.246Z,1.22
2023-05-12T03:52:38.265Z,1.24
2023-05-12T03:53:38.259Z,1.24
2023-05-12T03:54:39.114Z,1.23
2023-05-12T03:55:38.279Z,1.22
2023-05-12T03:56:38.291Z,1.20
2023-05-12T03:57:38.305Z,1.23
2023-05-12T03:58:38.317Z,1.24
2023-05-12T03:59:38.391Z,1.22
2023-05-12T04:00:38.969Z,1.23
2023-05-12T04:01:38.381Z,1.22
2023-05-12T04:02:38.532Z,1.22
2023-05-12T04:03:38.475Z,1.22
2023-05-12T04:04:38.408Z,1.23
2023-05-12T04:05:38.436Z,1.22
2023-05-12T04:06:38.450Z,1.21
2023-05-12T04:07:38.474Z,1.22
2023-05-12T04:08:41.695Z,1.20
2023-05-12T04:09:38.461Z,1.20
2023-05-12T04:10:38.449Z,1.22
2023-05-12T04:11:38.449Z,1.22
2023-05-12T04:12:38.476Z,1.21
2023-05-12T04:13:38.415Z,1.19
2023-05-12T04:14:42.915Z,1.21
2023-05-12T04:15:39.378Z,1.22
2023-05-12T04:16:38.379Z,1.22
2023-05-12T04:17:38.414Z,1.21
2023-05-12T04:18:38.380Z,1.23
2023-05-12T04:19:38.293Z,1.20
2023-05-12T04:20:38.271Z,1.20
2023-05-12T04:21:38.269Z,1.19
2023-05-12T04:22:38.237Z,1.20
2023-05-12T04:23:38.225Z,1.19
2023-05-12T04:24:38.213Z,1.20
2023-05-12T04:25:38.185Z,1.15
2023-05-12T04:26:38.172Z,1.17
2023-05-12T04:27:38.162Z,1.17
2023-05-12T04:28:38.140Z,1.15
2023-05-12T04:29:38.130Z,1.18
2023-05-12T04:30:38.122Z,1.16
2023-05-12T04:31:38.256Z,1.17
2023-05-12T04:32:38.114Z,1.17
2023-05-12T04:33:38.148Z,1.17
2023-05-12T04:34:38.103Z,1.18
2023-05-12T04:35:38.129Z,1.16
2023-05-12T04:36:38.167Z,1.17
2023-05-12T04:37:38.236Z,1.17
2023-05-12T04:38:38.184Z,1.17
2023-05-12T04:39:38.207Z,1.18
2023-05-12T04:40:38.222Z,1.15
2023-05-12T04:41:38.240Z,1.16
2023-05-12T04:42:38.317Z,1.14
2023-05-12T04:44:38.261Z,1.15
2023-05-12T04:45:38.244Z,1.14
2023-05-12T04:46:38.314Z,1.16
2023-05-12T04:47:38.242Z,1.14
2023-05-12T04:48:38.203Z,1.16
2023-05-12T04:49:38.181Z,1.14
2023-05-12T04:50:38.184Z,1.14
2023-05-12T04:51:38.225Z,1.12
2023-05-12T04:52:38.165Z,1.13
2023-05-12T04:53:38.177Z,1.11
2023-05-12T04:54:38.152Z,1.14
2023-05-12T04:55:38.185Z,1.12
2023-05-12T04:56:38.136Z,1.10
2023-05-12T04:57:38.132Z,1.11
2023-05-12T04:58:38.129Z,1.12
2023-05-12T04:59:39.297Z,1.13
2023-05-12T05:00:38.104Z,1.13
2023-05-12T05:01:38.145Z,1.13
2023-05-12T05:02:38.164Z,1.13
2023-05-12T05:03:38.152Z,1.11
2023-05-12T05:04:38.068Z,1.08
2023-05-12T05:05:38.653Z,1.11
2023-05-12T05:06:38.012Z,1.12
2023-05-12T05:07:38.007Z,1.10
2023-05-12T05:08:38.066Z,1.09
2023-05-12T05:09:38.015Z,1.10
2023-05-12T05:10:38.040Z,1.09
2023-05-12T05:11:37.951Z,1.08
2023-05-12T05:12:37.936Z,1.09
2023-05-12T05:13:37.921Z,1.07
2023-05-12T05:14:37.908Z,1.09
2023-05-12T05:15:37.921Z,1.08
2023-05-12T05:16:37.889Z,1.08
2023-05-12T05:17:37.918Z,1.08
2023-05-12T05:18:37.941Z,1.09
2023-05-12T05:19:50.866Z,1.08
2023-05-12T05:20:40.874Z,1.08
2023-05-12T05:21:38.729Z,1.08
2023-05-12T05:22:37.804Z,1.09
2023-05-12T05:23:37.818Z,1.10
2023-05-12T05:24:37.773Z,1.11
2023-05-12T05:25:37.744Z,1.05
2023-05-12T05:26:37.731Z,1.00
2023-05-12T05:27:37.729Z,0.94
2023-05-12T05:28:37.696Z,0.98
2023-05-12T05:29:37.686Z,0.89
2023-05-12T05:30:37.726Z,1.02
2023-05-12T05:31:37.774Z,0.95
2023-05-12T05:32:37.793Z,0.91
2023-05-12T05:33:37.623Z,0.94
2023-05-12T05:34:37.602Z,0.92
2023-05-12T05:35:37.565Z,0.99
2023-05-12T05:36:37.525Z,1.12
2023-05-12T05:37:37.511Z,1.19
2023-05-12T05:38:37.481Z,1.21
2023-05-12T05:39:37.458Z,1.28
2023-05-12T05:40:51.641Z,1.32
2023-05-12T05:41:38.437Z,1.33
2023-05-12T05:42:37.444Z,1.35
2023-05-12T05:43:37.357Z,1.42
2023-05-12T05:44:37.321Z,1.57
2023-05-12T05:45:37.294Z,1.82
2023-05-12T05:46:37.311Z,1.90
2023-05-12T05:47:37.274Z,2.08
2023-05-12T05:48:37.206Z,2.17
2023-05-12T05:49:37.173Z,2.31
2023-05-12T05:50:37.142Z,2.45
2023-05-12T05:51:37.135Z,2.59
2023-05-12T05:52:37.101Z,2.74
2023-05-12T05:53:37.120Z,2.78
2023-05-12T05:54:37.078Z,2.99
2023-05-12T05:55:37.021Z,3.12
2023-05-12T05:56:37.014Z,3.17
2023-05-12T05:57:36.953Z,3.28
2023-05-12T05:58:36.928Z,3.47
2023-05-12T05:59:36.900Z,3.72
2023-05-12T06:00:36.877Z,4.02
2023-05-12T06:01:36.908Z,4.24
2023-05-12T06:02:36.905Z,4.36
2023-05-12T06:03:36.928Z,4.37
2023-05-12T06:04:36.756Z,4.56
2023-05-12T06:05:36.723Z,4.64
2023-05-12T06:06:36.691Z,4.89
2023-05-12T06:07:36.675Z,5.15
2023-05-12T06:08:36.669Z,5.30
2023-05-12T06:09:36.601Z,5.61
2023-05-12T06:10:36.585Z,5.91
2023-05-12T06:11:36.556Z,6.26
2023-05-12T06:12:36.589Z,6.39
2023-05-12T06:13:37.096Z,7.18
2023-05-12T06:14:36.586Z,7.72
2023-05-12T06:15:36.611Z,8.47
2023-05-12T06:16:36.680Z,8.62
2023-05-12T06:17:36.598Z,8.74
2023-05-12T06:18:36.602Z,8.90
2023-05-12T06:19:36.534Z,9.08
2023-05-12T06:20:36.556Z,9.36
2023-05-12T06:21:36.534Z,9.55
2023-05-12T06:22:36.541Z,6.88
2023-05-12T06:23:36.538Z,5.71
2023-05-12T06:24:36.489Z,4.46
2023-05-12T06:25:36.489Z,3.51
2023-05-12T06:26:36.530Z,3.66
2023-05-12T06:27:36.431Z,3.99
2023-05-12T06:28:36.423Z,3.70
2023-05-12T06:29:36.407Z,3.48
2023-05-12T06:30:36.386Z,3.64
2023-05-12T06:31:36.381Z,3.69
2023-05-12T06:32:36.366Z,3.79
2023-05-12T06:33:36.324Z,3.97
2023-05-12T06:34:36.291Z,4.08
2023-05-12T06:35:36.277Z,4.05
2023-05-12T06:36:36.258Z,4.29
2023-05-12T06:37:36.291Z,4.45
2023-05-12T06:38:36.203Z,4.59
2023-05-12T06:39:36.152Z,4.80
2023-05-12T06:40:36.133Z,4.88
2023-05-12T06:41:36.108Z,5.28
2023-05-12T06:42:36.200Z,5.52
2023-05-12T06:43:36.059Z,5.66
2023-05-12T06:44:36.045Z,5.79
2023-05-12T06:45:36.024Z,5.95
2023-05-12T06:46:36.064Z,6.17
2023-05-12T06:47:36.046Z,6.37
2023-05-12T06:48:35.950Z,6.41
2023-05-12T06:49:35.930Z,6.60
2023-05-12T06:50:35.908Z,6.83
2023-05-12T06:51:35.868Z,6.84
2023-05-12T06:52:35.858Z,7.05
2023-05-12T06:53:35.865Z,7.36
2023-05-12T06:54:35.861Z,7.66
2023-05-12T06:55:35.894Z,7.81
2023-05-12T06:56:35.891Z,8.28
2023-05-12T06:57:36.019Z,8.33
2023-05-12T06:58:35.961Z,8.34
2023-05-12T06:59:35.970Z,8.59
2023-05-12T07:00:35.987Z,8.94
2023-05-12T07:01:36.061Z,9.04
2023-05-12T07:02:36.078Z,9.99
2023-05-12T07:03:36.102Z,9.88
2023-05-12T07:04:36.136Z,10.19
2023-05-12T07:05:36.180Z,10.73
2023-05-12T07:06:36.133Z,10.47
2023-05-12T07:07:36.222Z,11.23
2023-05-12T07:08:36.189Z,12.61
2023-05-12T07:09:36.206Z,13.54
2023-05-12T07:10:36.227Z,13.36
2023-05-12T07:11:36.273Z,14.07
2023-05-12T07:12:36.293Z,13.97
2023-05-12T07:13:36.313Z,14.43
2023-05-12T07:14:36.344Z,14.73
2023-05-12T07:15:36.369Z,15.27
2023-05-12T07:16:36.414Z,15.95
2023-05-12T07:17:36.580Z,15.01
2023-05-12T07:18:36.453Z,14.43
2023-05-12T07:19:37.382Z,14.43
2023-05-12T07:20:36.348Z,13.58
2023-05-12T07:21:36.310Z,10.35
2023-05-12T07:22:38.453Z,7.81
2023-05-12T07:23:36.461Z,7.39
2023-05-12T07:24:36.485Z,7.69
2023-05-12T07:25:36.539Z,7.72
2023-05-12T07:26:37.185Z,7.45
2023-05-12T07:27:37.192Z,7.82
2023-05-12T07:28:36.603Z,8.12
2023-05-12T07:29:36.620Z,8.21
2023-05-12T07:30:37.192Z,8.47
2023-05-12T07:31:36.701Z,8.66
2023-05-12T07:32:36.775Z,8.80
2023-05-12T07:33:37.201Z,9.02
2023-05-12T07:34:36.688Z,9.34
2023-05-12T07:35:36.725Z,9.40
2023-05-12T07:36:36.719Z,9.96
2023-05-12T07:37:36.721Z,10.64
2023-05-12T07:38:36.738Z,10.38
2023-05-12T07:39:36.734Z,10.36
2023-05-12T07:40:36.741Z,10.86
2023-05-12T07:41:36.773Z,10.94
2023-05-12T07:42:36.816Z,11.38
2023-05-12T07:43:36.746Z,11.45
2023-05-12T07:44:36.836Z,12.23
2023-05-12T07:45:36.762Z,14.31
2023-05-12T07:46:36.787Z,15.01
2023-05-12T07:47:36.757Z,15.40
2023-05-12T07:48:36.738Z,15.48
2023-05-12T07:49:36.743Z,16.08
2023-05-12T07:50:36.730Z,16.66
2023-05-12T07:51:36.791Z,16.77
2023-05-12T07:52:36.690Z,17.07
2023-05-12T07:53:36.671Z,17.31
2023-05-12T07:54:36.642Z,17.59
2023-05-12T07:55:36.639Z,17.98
2023-05-12T07:56:36.620Z,18.41
2023-05-12T07:57:36.584Z,18.77
2023-05-12T07:58:36.581Z,18.99
2023-05-12T07:59:36.573Z,19.71
2023-05-12T08:00:37.197Z,19.91
2023-05-12T08:01:36.510Z,20.06
2023-05-12T08:02:36.702Z,21.35
2023-05-12T08:03:36.651Z,21.02
2023-05-12T08:04:36.491Z,21.15
2023-05-12T08:05:36.447Z,21.39
2023-05-12T08:06:36.367Z,21.48
2023-05-12T08:07:36.408Z,21.78
2023-05-12T08:08:36.307Z,22.14
2023-05-12T08:09:36.280Z,22.74
2023-05-12T08:10:36.256Z,23.39
2023-05-12T08:11:36.230Z,25.62
2023-05-12T08:12:36.190Z,23.62
2023-05-12T08:13:36.239Z,20.81
2023-05-12T08:14:36.117Z,19.22
2023-05-12T08:15:36.072Z,17.12
2023-05-12T08:16:36.090Z,13.99
2023-05-12T08:17:36.032Z,14.23
2023-05-12T08:18:36.108Z,11.13
2023-05-12T08:19:35.955Z,9.18
2023-05-12T08:20:35.959Z,8.40
2023-05-12T08:21:35.965Z,8.86
2023-05-12T08:22:35.942Z,9.43
2023-05-12T08:23:35.951Z,8.90
2023-05-12T08:24:35.936Z,8.96
2023-05-12T08:25:36.012Z,8.87
2023-05-12T08:26:35.952Z,8.61
2023-05-12T08:27:35.959Z,8.60
2023-05-12T08:28:36.632Z,8.35
2023-05-12T08:29:35.978Z,8.31
2023-05-12T08:30:36.046Z,8.24
2023-05-12T08:31:36.044Z,8.33
2023-05-12T08:32:36.029Z,8.09
2023-05-12T08:33:36.052Z,8.19
2023-05-12T08:34:36.099Z,7.92
2023-05-12T08:35:36.106Z,7.87
2023-05-12T08:36:36.189Z,7.93
2023-05-12T08:37:36.150Z,7.91
2023-05-12T08:38:36.184Z,7.86
2023-05-12T08:39:36.202Z,7.90
2023-05-12T08:40:36.209Z,7.81
2023-05-12T08:41:36.204Z,7.53
2023-05-12T08:42:36.222Z,7.61
2023-05-12T08:43:36.222Z,7.61
2023-05-12T08:44:36.310Z,7.52
2023-05-12T08:45:36.348Z,7.59
2023-05-12T08:46:36.310Z,7.38
2023-05-12T08:47:36.321Z,7.33
2023-05-12T08:48:36.285Z,7.31
2023-05-12T08:49:36.362Z,7.07
2023-05-12T08:50:36.273Z,7.12
2023-05-12T08:51:36.235Z,7.07
2023-05-12T08:52:36.214Z,6.97
2023-05-12T08:53:36.199Z,6.92
2023-05-12T08:54:48.630Z,6.93
2023-05-12T08:55:37.145Z,6.92
2023-05-12T08:57:36.951Z,6.86
2023-05-12T08:58:41.495Z,6.93
2023-05-12T08:59:36.982Z,6.94
2023-05-12T09:00:36.022Z,6.93
2023-05-12T09:01:36.923Z,6.97
2023-05-12T09:02:51.332Z,6.92
2023-05-12T09:03:36.886Z,6.93
2023-05-12T09:04:35.883Z,6.94
2023-05-12T09:05:35.776Z,6.78
2023-05-12T09:06:35.759Z,6.81
2023-05-12T09:07:35.699Z,6.83
2023-05-12T09:08:35.690Z,6.68
2023-05-12T09:09:35.637Z,6.55
2023-05-12T09:10:35.964Z,6.46
2023-05-12T09:11:35.531Z,6.46
2023-05-12T09:12:35.505Z,6.53
2023-05-12T09:13:35.486Z,6.52
2023-05-12T09:14:35.411Z,6.27
2023-05-12T09:15:35.449Z,6.38
2023-05-12T09:16:35.563Z,6.41
2023-05-12T09:17:35.294Z,6.38
2023-05-12T09:18:35.306Z,6.29
2023-05-12T09:19:35.209Z,5.88
2023-05-12T09:20:35.191Z,5.67
2023-05-12T09:21:35.163Z,6.18
2023-05-12T09:22:35.120Z,6.00
2023-05-12T09:23:35.099Z,5.00
2023-05-12T09:24:35.067Z,3.90
2023-05-12T09:25:35.038Z,2.92
2023-05-12T09:26:35.024Z,2.38
2023-05-12T09:27:35.000Z,2.34
2023-05-12T09:28:34.963Z,2.28
2023-05-12T09:29:39.851Z,1.98
2023-05-12T09:30:35.887Z,1.98
2023-05-12T09:31:34.870Z,1.63
2023-05-12T09:32:34.994Z,1.43
2023-05-12T09:33:34.771Z,1.63
2023-05-12T09:34:34.767Z,1.36
2023-05-12T09:35:34.747Z,1.15
2023-05-12T09:36:34.629Z,0.92
2023-05-12T09:37:34.582Z,0.75
2023-05-12T09:38:34.623Z,0.77
2023-05-12T09:39:34.518Z,0.80
2023-05-12T09:40:34.493Z,0.91
2023-05-12T09:41:34.449Z,0.85
2023-05-12T09:42:34.387Z,0.84
2023-05-12T09:43:34.371Z,0.66
2023-05-12T09:44:34.317Z,0.72
2023-05-12T09:45:34.339Z,0.70
2023-05-12T09:46:34.302Z,0.76
2023-05-12T09:47:34.223Z,0.75
2023-05-12T09:48:34.159Z,0.56
2023-05-12T09:49:34.746Z,0.49
2023-05-12T09:50:44.314Z,0.48
2023-05-12T09:51:35.030Z,0.39
2023-05-12T09:52:34.047Z,0.34
2023-05-12T09:53:34.260Z,0.34
2023-05-12T09:54:33.983Z,0.34
2023-05-12T09:55:33.931Z,0.34
2023-05-12T09:56:33.869Z,0.34
2023-05-12T09:57:33.830Z,0.34
2023-05-12T09:58:33.783Z,0.34
2023-05-12T09:59:33.776Z,0.34
2023-05-12T10:01:33.731Z,0.34
2023-05-12T10:02:33.821Z,0.34
2023-05-12T10:03:33.611Z,0.37
2023-05-12T10:04:33.616Z,0.40
2023-05-12T10:05:33.560Z,0.42
2023-05-12T10:06:33.582Z,0.49
2023-05-12T10:07:33.484Z,0.50
2023-05-12T10:08:33.456Z,0.50
2023-05-12T10:09:33.443Z,0.50
2023-05-12T10:10:33.616Z,0.51
2023-05-12T10:11:33.372Z,0.57
2023-05-12T10:12:33.323Z,0.53
2023-05-12T10:13:33.299Z,0.63
2023-05-12T10:14:33.267Z,1.04
2023-05-12T10:15:33.219Z,1.08
2023-05-12T10:16:33.239Z,1.31
2023-05-12T10:17:33.221Z,1.49
2023-05-12T10:18:33.098Z,1.28
2023-05-12T10:19:33.059Z,0.91
2023-05-12T10:20:33.105Z,1.02
2023-05-12T10:21:32.979Z,1.25
2023-05-12T10:22:32.929Z,1.46
2023-05-12T10:23:32.890Z,1.61
2023-05-12T10:24:32.851Z,1.78
2023-05-12T10:25:32.883Z,1.98
2023-05-12T10:26:32.774Z,2.23
2023-05-12T10:27:32.723Z,2.35
2023-05-12T10:28:32.672Z,2.59
2023-05-12T10:29:32.730Z,2.81
2023-05-12T10:30:32.660Z,3.08
2023-05-12T10:31:32.627Z,3.33
2023-05-12T10:32:32.566Z,3.59
2023-05-12T10:33:32.463Z,3.79
2023-05-12T10:34:32.409Z,4.05
2023-05-12T10:35:32.349Z,4.36
2023-05-12T10:36:32.315Z,4.60
2023-05-12T10:37:32.251Z,5.03
2023-05-12T10:38:32.730Z,5.39
2023-05-12T10:39:32.167Z,5.94
2023-05-12T10:40:32.101Z,6.22
2023-05-12T10:41:32.064Z,6.85
2023-05-12T10:42:32.037Z,7.77
2023-05-12T10:43:31.964Z,8.14
2023-05-12T10:44:32.681Z,8.81
2023-05-12T10:45:31.888Z,9.56
2023-05-12T10:46:31.826Z,10.40
2023-05-12T10:47:31.882Z,10.54
2023-05-12T10:48:31.737Z,11.22
2023-05-12T10:49:31.675Z,11.78
2023-05-12T10:50:31.616Z,12.46
2023-05-12T10:51:31.568Z,12.96
2023-05-12T10:52:31.515Z,13.33
2023-05-12T10:53:45.089Z,14.08
2023-05-12T10:54:32.438Z,14.12
2023-05-12T10:55:31.464Z,14.37
2023-05-12T10:56:31.616Z,14.76
2023-05-12T10:57:31.717Z,15.66
2023-05-12T10:59:31.454Z,17.66
2023-05-12T11:00:31.449Z,17.35
2023-05-12T11:01:31.709Z,16.98
2023-05-12T11:02:32.323Z,17.34
2023-05-12T11:03:32.138Z,17.84
2023-05-12T11:04:31.285Z,18.20
2023-05-12T11:05:31.839Z,18.50
2023-05-12T11:06:31.271Z,18.42
2023-05-12T11:07:32.544Z,18.27
2023-05-12T11:08:32.095Z,18.82
2023-05-12T11:09:31.254Z,18.41
2023-05-12T11:10:31.388Z,18.41
2023-05-12T11:11:31.207Z,18.71
2023-05-12T11:12:30.896Z,18.76
2023-05-12T11:13:30.776Z,18.67
2023-05-12T11:14:30.744Z,18.49
2023-05-12T11:15:30.711Z,18.66
2023-05-12T11:16:30.691Z,18.55
2023-05-12T11:17:30.686Z,18.69
2023-05-12T11:18:30.666Z,18.74
2023-05-12T11:19:30.597Z,18.60
2023-05-12T11:20:31.234Z,18.51
2023-05-12T11:21:30.560Z,18.24
2023-05-12T11:22:31.370Z,17.96
2023-05-12T11:23:30.505Z,17.66
2023-05-12T11:24:30.504Z,17.70
2023-05-12T11:25:30.467Z,17.48
2023-05-12T11:26:30.441Z,17.58
2023-05-12T11:27:30.418Z,17.32
2023-05-12T11:28:30.417Z,17.08
2023-05-12T11:29:30.369Z,17.31
2023-05-12T11:30:30.533Z,17.28
2023-05-12T11:31:30.399Z,16.75
2023-05-12T11:32:30.648Z,16.69
2023-05-12T11:33:30.304Z,16.65
2023-05-12T11:34:30.293Z,16.29
2023-05-12T11:35:30.268Z,16.55
2023-05-12T11:36:30.246Z,16.16
2023-05-12T11:37:30.235Z,16.29
2023-05-12T11:38:30.215Z,16.37
2023-05-12T11:39:30.202Z,16.19
2023-05-12T11:40:30.182Z,15.95
2023-05-12T11:41:30.160Z,16.06
2023-05-12T11:42:30.158Z,15.90
2023-05-12T11:43:30.181Z,16.00
2023-05-12T11:44:30.101Z,16.26
2023-05-12T11:45:30.100Z,16.00
2023-05-12T11:46:30.362Z,15.77
2023-05-12T11:47:30.819Z,15.68
2023-05-12T11:48:30.057Z,15.55
2023-05-12T11:49:30.032Z,15.81
2023-05-12T11:50:30.022Z,15.89
2023-05-12T11:51:30.008Z,15.53
2023-05-12T11:52:30.008Z,15.74
2023-05-12T11:53:29.990Z,15.63
2023-05-12T11:54:29.993Z,15.58
2023-05-12T11:55:29.994Z,15.62
2023-05-12T11:56:29.994Z,15.28
2023-05-12T11:57:29.975Z,15.46
2023-05-12T11:58:29.977Z,15.28
2023-05-12T11:59:29.973Z,15.25
2023-05-12T12:00:29.957Z,15.26
2023-05-12T12:01:29.943Z,15.17
2023-05-12T12:02:30.085Z,15.36
2023-05-12T12:03:30.051Z,14.88
2023-05-12T12:04:30.128Z,15.10
2023-05-12T12:05:29.940Z,14.94
2023-05-12T12:06:29.950Z,14.71
2023-05-12T12:07:29.941Z,14.97
2023-05-12T12:08:29.957Z,14.84
2023-05-12T12:09:29.947Z,14.73
2023-05-12T12:10:29.958Z,14.67
2023-05-12T12:11:29.959Z,14.70
2023-05-12T12:12:29.961Z,14.68
2023-05-12T12:13:30.001Z,14.81
2023-05-12T12:14:29.993Z,14.45
2023-05-12T12:15:30.134Z,14.78
2023-05-12T12:16:30.036Z,14.52
2023-05-12T12:17:30.119Z,14.49
2023-05-12T12:18:30.020Z,14.53
2023-05-12T12:19:30.003Z,14.43
2023-05-12T12:20:30.016Z,14.50
2023-05-12T12:21:30.025Z,14.33
2023-05-12T12:22:30.024Z,14.31
2023-05-12T12:23:37.680Z,14.24
2023-05-12T12:24:31.010Z,14.27
2023-05-12T12:25:29.956Z,14.33
2023-05-12T12:26:29.916Z,14.35
2023-05-12T12:27:29.970Z,14.43
2023-05-12T12:28:29.841Z,14.43
2023-05-12T12:29:29.800Z,14.37
2023-05-12T12:30:29.764Z,14.19
2023-05-12T12:31:29.796Z,14.24
2023-05-12T12:32:29.817Z,14.19
2023-05-12T12:33:29.654Z,14.01
2023-05-12T12:34:29.621Z,14.07
2023-05-12T12:35:29.571Z,13.98
2023-05-12T12:36:29.582Z,13.84
2023-05-12T12:37:29.568Z,13.88
2023-05-12T12:38:29.600Z,14.21
2023-05-12T12:39:29.584Z,13.96
2023-05-12T12:40:29.609Z,13.74
2023-05-12T12:41:29.614Z,14.02
2023-05-12T12:42:29.634Z,13.63
2023-05-12T12:43:29.647Z,13.74
2023-05-12T12:44:30.309Z,13.92
2023-05-12T12:45:29.681Z,13.48
2023-05-12T12:46:29.823Z,13.62
2023-05-12T12:47:29.729Z,13.47
2023-05-12T12:48:29.731Z,13.33
2023-05-12T12:49:29.756Z,13.41
2023-05-12T12:50:29.773Z,13.21
2023-05-12T12:51:42.056Z,13.13
2023-05-12T12:52:30.741Z,13.16
2023-05-12T12:53:30.314Z,13.22
2023-05-12T12:54:29.647Z,13.22
2023-05-12T12:55:29.616Z,13.17
2023-05-12T12:56:29.568Z,13.18
2023-05-12T12:57:29.516Z,13.29
2023-05-12T12:58:29.478Z,12.96
2023-05-12T12:59:29.416Z,12.95
2023-05-12T13:00:29.387Z,12.84
2023-05-12T13:01:29.399Z,12.56
2023-05-12T13:02:29.366Z,12.68
2023-05-12T13:03:29.302Z,12.66
2023-05-12T13:04:29.298Z,12.38
2023-05-12T13:05:29.302Z,12.54
2023-05-12T13:06:29.348Z,12.29
2023-05-12T13:07:29.322Z,12.57
2023-05-12T13:08:29.315Z,12.38
2023-05-12T13:09:29.317Z,12.37
2023-05-12T13:10:29.315Z,12.32
2023-05-12T13:11:29.323Z,12.43
2023-05-12T13:12:29.316Z,12.23
2023-05-12T13:13:29.300Z,12.17
2023-05-12T13:14:29.282Z,11.97
2023-05-12T13:15:29.274Z,12.01